sensor_id;sensor_type;location;lat;lon;timestamp;pressure;altitude;pressure_sealevel;temperature;humidity
77723;BME280;67811;42.656;23.394;2023-02-28T00:00:33;95548.38;;;5.46;88.96
77723;BME280;67811;42.656;23.394;2023-02-28T00:03:04;95551.16;;;5.44;88.99
77723;BME280;67811;42.656;23.394;2023-02-28T00:05:34;95541.88;;;5.40;89.04
77723;BME280;67811;42.656;23.394;2023-02-28T00:08:05;95540.66;;;5.35;89.65
77723;BME280;67811;42.656;23.394;2023-02-28T00:10:35;95534.16;;;5.29;89.66
77723;BME280;67811;42.656;23.394;2023-02-28T00:13:06;95545.91;;;5.25;90.76
77723;BME280;67811;42.656;23.394;2023-02-28T00:15:38;95549.34;;;5.45;91.33
77723;BME280;67811;42.656;23.394;2023-02-28T00:18:09;95544.75;;;5.57;91.50
77723;BME280;67811;42.656;23.394;2023-02-28T00:20:40;95547.81;;;5.42;89.85
77723;BME280;67811;42.656;23.394;2023-02-28T00:23:10;95550.19;;;5.45;89.91
77723;BME280;67811;42.656;23.394;2023-02-28T00:25:41;95558.47;;;5.50;89.65
77723;BME280;67811;42.656;23.394;2023-02-28T00:28:11;95559.28;;;5.51;90.00
77723;BME280;67811;42.656;23.394;2023-02-28T00:30:43;95554.88;;;5.51;91.32
77723;BME280;67811;42.656;23.394;2023-02-28T00:33:14;95554.88;;;5.51;91.20
77723;BME280;67811;42.656;23.394;2023-02-28T00:35:45;95548.22;;;5.57;91.24
77723;BME280;67811;42.656;23.394;2023-02-28T00:38:15;95561.03;;;5.60;91.74
77723;BME280;67811;42.656;23.394;2023-02-28T00:40:46;95569.63;;;5.72;92.57
77723;BME280;67811;42.656;23.394;2023-02-28T00:43:16;95557.56;;;5.69;92.24
77723;BME280;67811;42.656;23.394;2023-02-28T00:45:48;95542.34;;;5.73;92.55
77723;BME280;67811;42.656;23.394;2023-02-28T00:48:19;95541.78;;;5.69;91.65
77723;BME280;67811;42.656;23.394;2023-02-28T00:50:49;95546.78;;;5.72;91.50
77723;BME280;67811;42.656;23.394;2023-02-28T00:53:20;95545.56;;;5.67;91.39
77723;BME280;67811;42.656;23.394;2023-02-28T00:55:51;95530.22;;;5.62;91.47
77723;BME280;67811;42.656;23.394;2023-02-28T00:58:21;95540.88;;;5.61;91.76
77723;BME280;67811;42.656;23.394;2023-02-28T01:00:53;95552.63;;;5.57;91.82
77723;BME280;67811;42.656;23.394;2023-02-28T01:03:24;95553.78;;;5.44;92.30
77723;BME280;67811;42.656;23.394;2023-02-28T01:05:55;95549.34;;;5.45;92.44
77723;BME280;67811;42.656;23.394;2023-02-28T01:08:26;95552.09;;;5.53;92.46
77723;BME280;67811;42.656;23.394;2023-02-28T01:10:56;95555.84;;;5.50;91.58
77723;BME280;67811;42.656;23.394;2023-02-28T01:13:27;95554.19;;;5.49;91.95
77723;BME280;67811;42.656;23.394;2023-02-28T01:15:59;95552.25;;;5.42;92.34
77723;BME280;67811;42.656;23.394;2023-02-28T01:18:30;95545.91;;;5.44;91.77
77723;BME280;67811;42.656;23.394;2023-02-28T01:21:03;95540.75;;;5.52;91.93
77723;BME280;67811;42.656;23.394;2023-02-28T01:23:34;95542.13;;;5.47;91.17
77723;BME280;67811;42.656;23.394;2023-02-28T01:26:05;95543.78;;;5.48;91.45
77723;BME280;67811;42.656;23.394;2023-02-28T01:28:36;95527.91;;;5.49;91.25
77723;BME280;67811;42.656;23.394;2023-02-28T01:31:08;95538.78;;;5.54;91.63
77723;BME280;67811;42.656;23.394;2023-02-28T01:33:39;95534.69;;;5.42;90.45
77723;BME280;67811;42.656;23.394;2023-02-28T01:36:12;95528.91;;;5.39;90.44
77723;BME280;67811;42.656;23.394;2023-02-28T01:38:43;95524.88;;;5.35;90.69
77723;BME280;67811;42.656;23.394;2023-02-28T01:41:17;95546.19;;;5.32;91.30
77723;BME280;67811;42.656;23.394;2023-02-28T01:43:52;95552.56;;;5.29;91.24
77723;BME280;67811;42.656;23.394;2023-02-28T01:46:25;95542.63;;;5.23;91.29
77723;BME280;67811;42.656;23.394;2023-02-28T01:49:00;95546.88;;;5.34;91.62
77723;BME280;67811;42.656;23.394;2023-02-28T01:51:36;95542.44;;;5.34;91.12
77723;BME280;67811;42.656;23.394;2023-02-28T01:54:11;95543.69;;;5.30;91.29
77723;BME280;67811;42.656;23.394;2023-02-28T01:56:46;95551.84;;;5.37;91.74
77723;BME280;67811;42.656;23.394;2023-02-28T01:59:21;95539.56;;;5.27;91.35
77723;BME280;67811;42.656;23.394;2023-02-28T02:01:54;95534.72;;;5.23;91.12
77723;BME280;67811;42.656;23.394;2023-02-28T02:04:27;95541.66;;;5.14;91.05
77723;BME280;67811;42.656;23.394;2023-02-28T02:07:03;95548.84;;;5.12;91.54
77723;BME280;67811;42.656;23.394;2023-02-28T02:09:34;95547.72;;;5.05;91.35
77723;BME280;67811;42.656;23.394;2023-02-28T02:12:16;95541.78;;;5.03;92.25
77723;BME280;67811;42.656;23.394;2023-02-28T02:14:54;95541.38;;;4.98;92.20
77723;BME280;67811;42.656;23.394;2023-02-28T02:17:35;95539.16;;;5.03;93.01
77723;BME280;67811;42.656;23.394;2023-02-28T02:20:46;95540.00;;;5.03;93.26
77723;BME280;67811;42.656;23.394;2023-02-28T02:26:50;95545.25;;;5.23;92.21
77723;BME280;67811;42.656;23.394;2023-02-28T02:29:45;95537.94;;;5.17;92.04
77723;BME280;67811;42.656;23.394;2023-02-28T02:32:41;95538.19;;;5.14;92.20
77723;BME280;67811;42.656;23.394;2023-02-28T02:35:24;95542.47;;;5.15;93.24
77723;BME280;67811;42.656;23.394;2023-02-28T02:37:59;95539.03;;;5.14;93.28
77723;BME280;67811;42.656;23.394;2023-02-28T02:40:36;95540.13;;;5.12;93.67
77723;BME280;67811;42.656;23.394;2023-02-28T02:43:13;95542.78;;;5.02;93.77
77723;BME280;67811;42.656;23.394;2023-02-28T02:45:48;95551.75;;;4.99;93.69
77723;BME280;67811;42.656;23.394;2023-02-28T02:48:24;95553.94;;;5.14;94.75
77723;BME280;67811;42.656;23.394;2023-02-28T02:50:59;95555.47;;;5.16;94.24
77723;BME280;67811;42.656;23.394;2023-02-28T02:53:35;95546.34;;;5.11;93.67
77723;BME280;67811;42.656;23.394;2023-02-28T02:56:08;95537.94;;;5.07;93.53
77723;BME280;67811;42.656;23.394;2023-02-28T02:58:41;95560.19;;;5.22;93.94
77723;BME280;67811;42.656;23.394;2023-02-28T03:01:17;95562.81;;;5.22;93.51
77723;BME280;67811;42.656;23.394;2023-02-28T03:03:48;95574.69;;;5.17;93.10
77723;BME280;67811;42.656;23.394;2023-02-28T03:06:20;95571.78;;;5.10;92.16
77723;BME280;67811;42.656;23.394;2023-02-28T03:08:51;95583.97;;;5.11;92.48
77723;BME280;67811;42.656;23.394;2023-02-28T03:11:22;95582.03;;;5.13;92.52
77723;BME280;67811;42.656;23.394;2023-02-28T03:17:00;95591.00;;;5.20;92.17
77723;BME280;67811;42.656;23.394;2023-02-28T03:19:41;95593.91;;;5.17;91.45
77723;BME280;67811;42.656;23.394;2023-02-28T03:22:29;95595.28;;;5.21;91.23
77723;BME280;67811;42.656;23.394;2023-02-28T03:25:06;95601.25;;;5.14;91.46
77723;BME280;67811;42.656;23.394;2023-02-28T03:27:41;95598.03;;;5.10;92.33
77723;BME280;67811;42.656;23.394;2023-02-28T03:30:22;95598.75;;;5.02;91.51
77723;BME280;67811;42.656;23.394;2023-02-28T03:32:58;95600.25;;;5.05;92.12
77723;BME280;67811;42.656;23.394;2023-02-28T03:35:37;95607.16;;;5.16;92.85
77723;BME280;67811;42.656;23.394;2023-02-28T03:38:14;95604.69;;;5.24;92.54
77723;BME280;67811;42.656;23.394;2023-02-28T03:40:50;95609.38;;;5.30;91.74
77723;BME280;67811;42.656;23.394;2023-02-28T03:43:24;95601.50;;;5.20;91.06
77723;BME280;67811;42.656;23.394;2023-02-28T03:45:59;95607.47;;;5.13;91.68
77723;BME280;67811;42.656;23.394;2023-02-28T03:48:39;95618.09;;;5.21;92.27
77723;BME280;67811;42.656;23.394;2023-02-28T03:51:14;95608.81;;;5.26;91.47
77723;BME280;67811;42.656;23.394;2023-02-28T03:53:50;95613.41;;;5.15;90.78
77723;BME280;67811;42.656;23.394;2023-02-28T03:56:27;95618.13;;;5.11;91.16
77723;BME280;67811;42.656;23.394;2023-02-28T03:59:06;95613.13;;;5.08;90.70
77723;BME280;67811;42.656;23.394;2023-02-28T04:01:40;95619.34;;;4.97;92.15
77723;BME280;67811;42.656;23.394;2023-02-28T04:04:12;95613.81;;;4.91;91.89
77723;BME280;67811;42.656;23.394;2023-02-28T04:06:44;95611.59;;;4.86;91.36
77723;BME280;67811;42.656;23.394;2023-02-28T04:09:17;95617.41;;;4.90;91.88
77723;BME280;67811;42.656;23.394;2023-02-28T04:11:50;95612.72;;;5.03;91.72
77723;BME280;67811;42.656;23.394;2023-02-28T04:14:21;95615.75;;;5.08;91.35
77723;BME280;67811;42.656;23.394;2023-02-28T04:16:52;95609.94;;;5.14;91.65
77723;BME280;67811;42.656;23.394;2023-02-28T04:19:22;95609.94;;;5.14;91.42
77723;BME280;67811;42.656;23.394;2023-02-28T04:21:53;95609.69;;;5.08;91.53
77723;BME280;67811;42.656;23.394;2023-02-28T04:24:26;95611.72;;;5.04;92.12
77723;BME280;67811;42.656;23.394;2023-02-28T04:26:58;95612.81;;;4.82;92.52
77723;BME280;67811;42.656;23.394;2023-02-28T04:29:29;95610.34;;;4.81;93.06
77723;BME280;67811;42.656;23.394;2023-02-28T04:32:01;95609.66;;;4.79;92.89
77723;BME280;67811;42.656;23.394;2023-02-28T04:34:32;95608.69;;;4.80;93.91
77723;BME280;67811;42.656;23.394;2023-02-28T04:37:03;95606.63;;;4.73;93.58
77723;BME280;67811;42.656;23.394;2023-02-28T04:39:36;95617.38;;;4.70;93.74
77723;BME280;67811;42.656;23.394;2023-02-28T04:42:07;95621.97;;;4.78;93.39
77723;BME280;67811;42.656;23.394;2023-02-28T04:44:38;95627.16;;;4.59;93.78
77723;BME280;67811;42.656;23.394;2023-02-28T04:47:08;95632.13;;;4.52;93.68
77723;BME280;67811;42.656;23.394;2023-02-28T04:49:39;95635.56;;;4.53;94.06
77723;BME280;67811;42.656;23.394;2023-02-28T04:52:09;95642.53;;;4.33;94.21
77723;BME280;67811;42.656;23.394;2023-02-28T04:54:41;95631.09;;;4.34;94.89
77723;BME280;67811;42.656;23.394;2023-02-28T04:57:12;95637.19;;;4.44;95.11
77723;BME280;67811;42.656;23.394;2023-02-28T04:59:42;95640.09;;;4.41;95.36
77723;BME280;67811;42.656;23.394;2023-02-28T05:02:13;95630.97;;;4.45;95.09
77723;BME280;67811;42.656;23.394;2023-02-28T05:04:43;95635.97;;;4.48;95.42
77723;BME280;67811;42.656;23.394;2023-02-28T05:07:14;95641.91;;;4.50;95.23
77723;BME280;67811;42.656;23.394;2023-02-28T05:09:46;95634.91;;;4.51;95.21
77723;BME280;67811;42.656;23.394;2023-02-28T05:12:16;95642.22;;;4.57;95.07
77723;BME280;67811;42.656;23.394;2023-02-28T05:14:47;95640.13;;;4.51;94.94
77723;BME280;67811;42.656;23.394;2023-02-28T05:17:17;95647.03;;;4.52;95.04
77723;BME280;67811;42.656;23.394;2023-02-28T05:19:48;95650.22;;;4.45;94.93
77723;BME280;67811;42.656;23.394;2023-02-28T05:22:19;95641.38;;;4.46;94.80
77723;BME280;67811;42.656;23.394;2023-02-28T05:24:51;95658.63;;;4.49;95.36
77723;BME280;67811;42.656;23.394;2023-02-28T05:27:21;95658.22;;;4.54;94.79
77723;BME280;67811;42.656;23.394;2023-02-28T05:29:52;95654.53;;;4.56;94.72
77723;BME280;67811;42.656;23.394;2023-02-28T05:32:23;95659.09;;;4.64;94.66
77723;BME280;67811;42.656;23.394;2023-02-28T05:34:53;95663.66;;;4.71;94.54
77723;BME280;67811;42.656;23.394;2023-02-28T05:37:24;95657.34;;;4.84;95.00
77723;BME280;67811;42.656;23.394;2023-02-28T05:39:56;95668.97;;;4.91;95.28
77723;BME280;67811;42.656;23.394;2023-02-28T05:42:26;95676.25;;;4.87;94.28
77723;BME280;67811;42.656;23.394;2023-02-28T05:44:57;95673.25;;;4.92;93.29
77723;BME280;67811;42.656;23.394;2023-02-28T05:47:27;95671.03;;;4.97;93.21
77723;BME280;67811;42.656;23.394;2023-02-28T05:49:58;95670.50;;;5.13;92.28
77723;BME280;67811;42.656;23.394;2023-02-28T05:52:28;95672.31;;;5.12;91.76
77723;BME280;67811;42.656;23.394;2023-02-28T05:55:00;95678.94;;;5.07;91.61
77723;BME280;67811;42.656;23.394;2023-02-28T05:57:31;95680.59;;;5.08;91.79
77723;BME280;67811;42.656;23.394;2023-02-28T06:00:02;95690.13;;;5.09;91.82
77723;BME280;67811;42.656;23.394;2023-02-28T06:02:33;95684.31;;;5.05;91.34
77723;BME280;67811;42.656;23.394;2023-02-28T06:05:04;95672.44;;;5.11;91.48
77723;BME280;67811;42.656;23.394;2023-02-28T06:07:34;95684.72;;;5.10;91.41
77723;BME280;67811;42.656;23.394;2023-02-28T06:10:07;95683.91;;;5.10;91.05
77723;BME280;67811;42.656;23.394;2023-02-28T06:12:38;95678.25;;;5.14;91.34
77723;BME280;67811;42.656;23.394;2023-02-28T06:15:12;95678.53;;;5.21;90.97
77723;BME280;67811;42.656;23.394;2023-02-28T06:17:44;95675.06;;;5.20;91.13
77723;BME280;67811;42.656;23.394;2023-02-28T06:20:14;95673.25;;;5.21;90.20
77723;BME280;67811;42.656;23.394;2023-02-28T06:22:45;95677.28;;;5.25;90.64
77723;BME280;67811;42.656;23.394;2023-02-28T06:25:17;95673.97;;;5.23;90.77
77723;BME280;67811;42.656;23.394;2023-02-28T06:27:48;95684.47;;;5.13;90.32
77723;BME280;67811;42.656;23.394;2023-02-28T06:30:18;95679.38;;;5.12;90.74
77723;BME280;67811;42.656;23.394;2023-02-28T06:32:49;95694.28;;;5.11;90.98
77723;BME280;67811;42.656;23.394;2023-02-28T06:35:20;95686.13;;;5.14;90.80
77723;BME280;67811;42.656;23.394;2023-02-28T06:37:50;95687.94;;;5.14;91.16
77723;BME280;67811;42.656;23.394;2023-02-28T06:40:22;95684.91;;;5.18;90.79
77723;BME280;67811;42.656;23.394;2023-02-28T06:42:53;95685.03;;;5.17;90.32
77723;BME280;67811;42.656;23.394;2023-02-28T06:45:23;95691.22;;;5.16;90.03
77723;BME280;67811;42.656;23.394;2023-02-28T06:47:54;95694.00;;;5.14;90.08
77723;BME280;67811;42.656;23.394;2023-02-28T06:50:25;95688.19;;;5.20;89.63
77723;BME280;67811;42.656;23.394;2023-02-28T06:52:55;95687.38;;;5.29;90.22
77723;BME280;67811;42.656;23.394;2023-02-28T06:55:27;95699.28;;;5.34;90.04
77723;BME280;67811;42.656;23.394;2023-02-28T06:57:58;95701.50;;;5.48;90.24
77723;BME280;67811;42.656;23.394;2023-02-28T07:00:28;95695.97;;;5.61;89.44
77723;BME280;67811;42.656;23.394;2023-02-28T07:02:59;95703.97;;;5.59;88.23
77723;BME280;67811;42.656;23.394;2023-02-28T07:05:30;95696.94;;;5.50;87.84
77723;BME280;67811;42.656;23.394;2023-02-28T07:08:00;95699.16;;;5.45;88.94
77723;BME280;67811;42.656;23.394;2023-02-28T07:10:32;95702.06;;;5.51;88.83
77723;BME280;67811;42.656;23.394;2023-02-28T07:13:03;95701.66;;;5.56;88.98
77723;BME280;67811;42.656;23.394;2023-02-28T07:15:34;95700.38;;;5.60;88.68
77723;BME280;67811;42.656;23.394;2023-02-28T07:18:05;95693.72;;;5.66;88.47
77723;BME280;67811;42.656;23.394;2023-02-28T07:20:35;95689.44;;;5.65;88.37
77723;BME280;67811;42.656;23.394;2023-02-28T07:23:06;95695.13;;;5.70;88.19
77723;BME280;67811;42.656;23.394;2023-02-28T07:25:38;95696.63;;;5.82;88.53
77723;BME280;67811;42.656;23.394;2023-02-28T07:28:08;95699.81;;;5.86;87.72
77723;BME280;67811;42.656;23.394;2023-02-28T07:30:39;95700.81;;;5.94;88.38
77723;BME280;67811;42.656;23.394;2023-02-28T07:33:10;95695.97;;;5.99;88.03
77723;BME280;67811;42.656;23.394;2023-02-28T07:35:41;95700.91;;;6.02;88.46
77723;BME280;67811;42.656;23.394;2023-02-28T07:38:12;95690.66;;;6.09;88.17
77723;BME280;67811;42.656;23.394;2023-02-28T07:40:44;95689.63;;;6.29;87.56
77723;BME280;67811;42.656;23.394;2023-02-28T07:43:14;95694.56;;;6.42;87.71
77723;BME280;67811;42.656;23.394;2023-02-28T07:45:45;95694.66;;;6.60;87.55
77723;BME280;67811;42.656;23.394;2023-02-28T07:48:15;95691.09;;;6.79;86.50
77723;BME280;67811;42.656;23.394;2023-02-28T07:50:54;95690.91;;;6.90;86.01
77723;BME280;67811;42.656;23.394;2023-02-28T07:53:24;95691.94;;;6.97;85.88
77723;BME280;67811;42.656;23.394;2023-02-28T07:55:57;95692.50;;;7.01;85.46
77723;BME280;67811;42.656;23.394;2023-02-28T07:58:28;95689.56;;;7.04;85.83
77723;BME280;67811;42.656;23.394;2023-02-28T08:01:05;95684.75;;;6.99;86.61
77723;BME280;67811;42.656;23.394;2023-02-28T08:03:36;95682.41;;;7.14;87.48
77723;BME280;67811;42.656;23.394;2023-02-28T08:06:15;95678.66;;;7.34;86.82
77723;BME280;67811;42.656;23.394;2023-02-28T08:08:46;95680.47;;;7.52;87.03
77723;BME280;67811;42.656;23.394;2023-02-28T08:11:18;95681.19;;;7.54;87.55
77723;BME280;67811;42.656;23.394;2023-02-28T08:13:48;95684.63;;;7.72;87.68
77723;BME280;67811;42.656;23.394;2023-02-28T08:16:19;95681.50;;;7.95;86.66
77723;BME280;67811;42.656;23.394;2023-02-28T08:18:50;95677.72;;;8.23;85.55
77723;BME280;67811;42.656;23.394;2023-02-28T08:21:21;95682.06;;;8.32;84.55
77723;BME280;67811;42.656;23.394;2023-02-28T08:23:52;95678.44;;;8.33;84.29
77723;BME280;67811;42.656;23.394;2023-02-28T08:26:24;95678.44;;;8.33;83.93
77723;BME280;67811;42.656;23.394;2023-02-28T08:28:54;95687.69;;;8.55;83.30
77723;BME280;67811;42.656;23.394;2023-02-28T08:31:25;95686.81;;;8.81;81.75
77723;BME280;67811;42.656;23.394;2023-02-28T08:33:55;95687.41;;;9.17;81.20
77723;BME280;67811;42.656;23.394;2023-02-28T08:36:26;95677.72;;;9.42;80.34
77723;BME280;67811;42.656;23.394;2023-02-28T08:38:57;95690.97;;;9.66;78.07
77723;BME280;67811;42.656;23.394;2023-02-28T08:41:29;95684.03;;;9.65;78.09
77723;BME280;67811;42.656;23.394;2023-02-28T08:44:00;95688.00;;;9.94;76.14
77723;BME280;67811;42.656;23.394;2023-02-28T08:46:30;95682.41;;;9.81;77.12
77723;BME280;67811;42.656;23.394;2023-02-28T08:49:01;95681.91;;;9.69;77.97
77723;BME280;67811;42.656;23.394;2023-02-28T08:51:32;95685.00;;;9.48;78.31
77723;BME280;67811;42.656;23.394;2023-02-28T08:54:02;95685.66;;;9.42;78.97
77723;BME280;67811;42.656;23.394;2023-02-28T08:56:34;95698.59;;;9.45;78.77
77723;BME280;67811;42.656;23.394;2023-02-28T08:59:05;95693.25;;;9.37;78.83
77723;BME280;67811;42.656;23.394;2023-02-28T09:01:35;95702.38;;;9.42;79.02
77723;BME280;67811;42.656;23.394;2023-02-28T09:04:06;95702.97;;;9.28;78.49
77723;BME280;67811;42.656;23.394;2023-02-28T09:06:37;95692.75;;;9.25;79.18
77723;BME280;67811;42.656;23.394;2023-02-28T09:09:08;95696.88;;;9.28;79.21
77723;BME280;67811;42.656;23.394;2023-02-28T09:11:40;95686.78;;;9.23;79.82
77723;BME280;67811;42.656;23.394;2023-02-28T09:14:11;95697.63;;;9.12;80.26
77723;BME280;67811;42.656;23.394;2023-02-28T09:16:41;95696.97;;;9.02;80.72
77723;BME280;67811;42.656;23.394;2023-02-28T09:19:12;95692.44;;;8.86;81.08
77723;BME280;67811;42.656;23.394;2023-02-28T09:21:42;95688.00;;;8.94;80.93
77723;BME280;67811;42.656;23.394;2023-02-28T09:24:13;95697.91;;;8.92;80.80
77723;BME280;67811;42.656;23.394;2023-02-28T09:26:45;95693.66;;;9.00;80.27
77723;BME280;67811;42.656;23.394;2023-02-28T09:29:16;95684.66;;;8.84;81.25
77723;BME280;67811;42.656;23.394;2023-02-28T09:31:46;95684.72;;;9.01;79.72
77723;BME280;67811;42.656;23.394;2023-02-28T09:34:17;95678.59;;;8.92;79.72
77723;BME280;67811;42.656;23.394;2023-02-28T09:36:47;95685.53;;;9.52;78.32
77723;BME280;67811;42.656;23.394;2023-02-28T09:39:18;95689.19;;;9.91;76.21
77723;BME280;67811;42.656;23.394;2023-02-28T09:41:51;95680.41;;;9.99;75.65
77723;BME280;67811;42.656;23.394;2023-02-28T09:44:24;95695.78;;;9.63;76.71
77723;BME280;67811;42.656;23.394;2023-02-28T09:46:59;95691.50;;;9.78;76.59
77723;BME280;67811;42.656;23.394;2023-02-28T09:49:37;95678.91;;;9.72;76.58
77723;BME280;67811;42.656;23.394;2023-02-28T09:52:12;95679.09;;;9.95;75.56
77723;BME280;67811;42.656;23.394;2023-02-28T09:54:44;95672.94;;;9.54;76.71
77723;BME280;67811;42.656;23.394;2023-02-28T09:57:24;95675.75;;;9.60;76.10
77723;BME280;67811;42.656;23.394;2023-02-28T10:00:07;95671.66;;;9.74;76.15
77723;BME280;67811;42.656;23.394;2023-02-28T10:02:58;95674.28;;;9.66;75.35
77723;BME280;67811;42.656;23.394;2023-02-28T10:05:36;95675.28;;;9.81;75.50
77723;BME280;67811;42.656;23.394;2023-02-28T10:08:13;95669.66;;;9.92;75.54
77723;BME280;67811;42.656;23.394;2023-02-28T10:10:46;95677.59;;;10.00;74.88
77723;BME280;67811;42.656;23.394;2023-02-28T10:13:25;95668.84;;;10.00;74.70
77723;BME280;67811;42.656;23.394;2023-02-28T10:16:00;95669.66;;;9.68;74.28
77723;BME280;67811;42.656;23.394;2023-02-28T10:18:40;95661.22;;;9.64;75.52
77723;BME280;67811;42.656;23.394;2023-02-28T10:21:17;95646.31;;;9.71;74.13
77723;BME280;67811;42.656;23.394;2023-02-28T10:23:55;95658.06;;;9.61;74.54
77723;BME280;67811;42.656;23.394;2023-02-28T10:26:29;95658.72;;;9.87;73.43
77723;BME280;67811;42.656;23.394;2023-02-28T10:29:03;95664.84;;;9.96;73.59
77723;BME280;67811;42.656;23.394;2023-02-28T10:31:33;95654.25;;;9.71;73.24
77723;BME280;67811;42.656;23.394;2023-02-28T10:34:04;95656.09;;;9.63;73.27
77723;BME280;67811;42.656;23.394;2023-02-28T10:36:34;95648.81;;;9.89;72.82
77723;BME280;67811;42.656;23.394;2023-02-28T10:39:39;95637.38;;;10.13;73.25
77723;BME280;67811;42.656;23.394;2023-02-28T10:42:22;95635.56;;;10.06;72.80
77723;BME280;67811;42.656;23.394;2023-02-28T10:45:11;95643.97;;;10.09;72.60
77723;BME280;67811;42.656;23.394;2023-02-28T10:47:52;95626.78;;;9.97;73.55
77723;BME280;67811;42.656;23.394;2023-02-28T10:50:29;95622.31;;;9.97;72.14
77723;BME280;67811;42.656;23.394;2023-02-28T10:53:16;95616.84;;;10.23;72.62
77723;BME280;67811;42.656;23.394;2023-02-28T10:55:57;95626.41;;;10.16;70.94
77723;BME280;67811;42.656;23.394;2023-02-28T10:58:30;95624.81;;;10.23;72.16
77723;BME280;67811;42.656;23.394;2023-02-28T11:01:03;95605.41;;;10.15;71.44
77723;BME280;67811;42.656;23.394;2023-02-28T11:03:34;95605.28;;;10.08;71.24
77723;BME280;67811;42.656;23.394;2023-02-28T11:06:08;95618.78;;;10.21;72.12
77723;BME280;67811;42.656;23.394;2023-02-28T11:08:48;95598.59;;;10.45;71.69
77723;BME280;67811;42.656;23.394;2023-02-28T11:11:20;95595.25;;;10.51;71.87
77723;BME280;67811;42.656;23.394;2023-02-28T11:13:55;95593.91;;;10.55;71.19
77723;BME280;67811;42.656;23.394;2023-02-28T11:16:34;95589.50;;;10.23;72.37
77723;BME280;67811;42.656;23.394;2023-02-28T11:19:18;95591.03;;;10.17;72.38
77723;BME280;67811;42.656;23.394;2023-02-28T11:21:53;95587.91;;;9.97;72.92
77723;BME280;67811;42.656;23.394;2023-02-28T11:24:27;95595.53;;;10.00;72.58
77723;BME280;67811;42.656;23.394;2023-02-28T11:26:58;95599.50;;;9.72;72.92
77723;BME280;67811;42.656;23.394;2023-02-28T11:29:31;95587.13;;;9.72;73.97
77723;BME280;67811;42.656;23.394;2023-02-28T11:32:07;95597.06;;;9.79;74.38
77723;BME280;67811;42.656;23.394;2023-02-28T11:34:41;95590.25;;;9.84;75.02
77723;BME280;67811;42.656;23.394;2023-02-28T11:37:15;95594.50;;;10.10;74.31
77723;BME280;67811;42.656;23.394;2023-02-28T11:39:46;95587.91;;;10.06;72.28
77723;BME280;67811;42.656;23.394;2023-02-28T11:42:36;95589.44;;;9.84;73.32
77723;BME280;67811;42.656;23.394;2023-02-28T11:45:24;95585.44;;;9.88;73.36
77723;BME280;67811;42.656;23.394;2023-02-28T11:48:04;95581.81;;;9.81;73.97
77723;BME280;67811;42.656;23.394;2023-02-28T11:50:54;95580.16;;;9.71;74.20
77723;BME280;67811;42.656;23.394;2023-02-28T11:53:43;95578.03;;;9.75;73.12
77723;BME280;67811;42.656;23.394;2023-02-28T11:56:24;95584.81;;;9.69;73.96
77723;BME280;67811;42.656;23.394;2023-02-28T12:02:04;95584.50;;;9.56;74.55
77723;BME280;67811;42.656;23.394;2023-02-28T12:04:41;95579.34;;;9.55;74.41
77723;BME280;67811;42.656;23.394;2023-02-28T12:07:23;95581.19;;;9.62;73.92
77723;BME280;67811;42.656;23.394;2023-02-28T12:10:04;95580.84;;;9.65;73.83
77723;BME280;67811;42.656;23.394;2023-02-28T12:12:45;95577.19;;;9.66;73.76
77723;BME280;67811;42.656;23.394;2023-02-28T12:15:28;95571.75;;;9.84;73.29
77723;BME280;67811;42.656;23.394;2023-02-28T12:18:07;95573.56;;;9.75;73.08
77723;BME280;67811;42.656;23.394;2023-02-28T12:20:48;95570.03;;;9.99;72.26
77723;BME280;67811;42.656;23.394;2023-02-28T12:23:44;95572.19;;;9.88;72.79
77723;BME280;67811;42.656;23.394;2023-02-28T12:26:19;95563.66;;;9.69;72.91
77723;BME280;67811;42.656;23.394;2023-02-28T12:28:57;95575.22;;;9.60;73.85
77723;BME280;67811;42.656;23.394;2023-02-28T12:31:34;95568.78;;;9.63;73.92
77723;BME280;67811;42.656;23.394;2023-02-28T12:34:08;95575.38;;;9.75;73.94
77723;BME280;67811;42.656;23.394;2023-02-28T12:36:43;95579.69;;;9.68;74.32
77723;BME280;67811;42.656;23.394;2023-02-28T12:39:20;95569.91;;;9.76;72.10
77723;BME280;67811;42.656;23.394;2023-02-28T12:41:56;95566.72;;;9.97;71.69
77723;BME280;67811;42.656;23.394;2023-02-28T12:44:33;95567.00;;;10.11;70.52
77723;BME280;67811;42.656;23.394;2023-02-28T12:47:09;95559.38;;;10.16;71.21
77723;BME280;67811;42.656;23.394;2023-02-28T12:49:46;95563.69;;;10.33;70.02
77723;BME280;67811;42.656;23.394;2023-02-28T12:52:30;95554.56;;;10.36;69.38
77723;BME280;67811;42.656;23.394;2023-02-28T12:55:12;95556.69;;;10.40;68.94
77723;BME280;67811;42.656;23.394;2023-02-28T12:57:49;95559.03;;;10.35;69.77
77723;BME280;67811;42.656;23.394;2023-02-28T13:00:27;95556.69;;;10.40;69.41
77723;BME280;67811;42.656;23.394;2023-02-28T13:03:25;95548.88;;;10.47;68.52
77723;BME280;67811;42.656;23.394;2023-02-28T13:06:17;95558.28;;;10.58;68.57
77723;BME280;67811;42.656;23.394;2023-02-28T13:09:08;95553.06;;;10.41;69.41
77723;BME280;67811;42.656;23.394;2023-02-28T13:11:43;95546.31;;;10.31;70.10
77723;BME280;67811;42.656;23.394;2023-02-28T13:14:21;95560.31;;;10.47;69.42
77723;BME280;67811;42.656;23.394;2023-02-28T13:16:59;95550.09;;;10.36;69.51
77723;BME280;67811;42.656;23.394;2023-02-28T13:19:33;95545.16;;;10.25;69.29
77723;BME280;67811;42.656;23.394;2023-02-28T13:22:05;95560.22;;;10.16;69.16
77723;BME280;67811;42.656;23.394;2023-02-28T13:24:48;95552.09;;;10.34;69.18
77723;BME280;67811;42.656;23.394;2023-02-28T13:27:31;95547.44;;;10.36;68.84
77723;BME280;67811;42.656;23.394;2023-02-28T13:33:24;95548.94;;;10.31;68.70
77723;BME280;67811;42.656;23.394;2023-02-28T13:36:23;95546.81;;;10.18;68.56
77723;BME280;67811;42.656;23.394;2023-02-28T13:38:56;95533.56;;;10.26;69.43
77723;BME280;67811;42.656;23.394;2023-02-28T13:41:47;95550.34;;;9.94;69.71
77723;BME280;67811;42.656;23.394;2023-02-28T13:44:19;95546.00;;;10.09;69.46
77723;BME280;67811;42.656;23.394;2023-02-28T13:47:22;95533.78;;;10.08;68.91
77723;BME280;67811;42.656;23.394;2023-02-28T13:49:54;95532.00;;;9.92;69.55